sensor_id;sensor_type;location;lat;lon;timestamp;temperature;humidity
14099;DHT22;7126;48.458;7.930;2023-05-20T00:01:00;14.60;99.90
14099;DHT22;7126;48.458;7.930;2023-05-20T00:03:26;14.60;99.90
14099;DHT22;7126;48.458;7.930;2023-05-20T00:05:51;14.50;99.90
14099;DHT22;7126;48.458;7.930;2023-05-20T00:08:18;14.40;99.90
14099;DHT22;7126;48.458;7.930;2023-05-20T00:10:43;14.40;99.90
14099;DHT22;7126;48.458;7.930;2023-05-20T00:13:09;14.30;99.90
14099;DHT22;7126;48.458;7.930;2023-05-20T00:15:35;14.40;99.90
14099;DHT22;7126;48.458;7.930;2023-05-20T00:18:01;14.30;99.90
14099;DHT22;7126;48.458;7.930;2023-05-20T00:20:28;14.20;99.90
14099;DHT22;7126;48.458;7.930;2023-05-20T00:22:54;14.30;99.90
14099;DHT22;7126;48.458;7.930;2023-05-20T00:25:19;14.20;99.90
14099;DHT22;7126;48.458;7.930;2023-05-20T00:27:45;14.20;99.90
14099;DHT22;7126;48.458;7.930;2023-05-20T00:30:11;14.10;99.90
14099;DHT22;7126;48.458;7.930;2023-05-20T00:32:37;14.10;99.90
14099;DHT22;7126;48.458;7.930;2023-05-20T00:35:03;14.10;99.90
14099;DHT22;7126;48.458;7.930;2023-05-20T00:37:29;14.10;99.90
14099;DHT22;7126;48.458;7.930;2023-05-20T00:39:54;14.00;99.90
14099;DHT22;7126;48.458;7.930;2023-05-20T00:42:20;14.10;99.90
14099;DHT22;7126;48.458;7.930;2023-05-20T00:44:46;14.00;99.90
14099;DHT22;7126;48.458;7.930;2023-05-20T00:47:12;14.00;99.90
14099;DHT22;7126;48.458;7.930;2023-05-20T00:49:38;14.10;99.90
14099;DHT22;7126;48.458;7.930;2023-05-20T00:52:04;14.10;99.90
14099;DHT22;7126;48.458;7.930;2023-05-20T00:54:30;14.20;99.90
14099;DHT22;7126;48.458;7.930;2023-05-20T00:56:57;14.20;99.90
14099;DHT22;7126;48.458;7.930;2023-05-20T00:59:24;14.20;99.90
14099;DHT22;7126;48.458;7.930;2023-05-20T01:01:50;14.20;99.90
14099;DHT22;7126;48.458;7.930;2023-05-20T01:04:16;14.10;99.90
14099;DHT22;7126;48.458;7.930;2023-05-20T01:06:42;14.10;99.90
14099;DHT22;7126;48.458;7.930;2023-05-20T01:09:08;14.10;99.90
14099;DHT22;7126;48.458;7.930;2023-05-20T01:11:39;14.10;99.90
14099;DHT22;7126;48.458;7.930;2023-05-20T01:14:09;14.10;99.90
14099;DHT22;7126;48.458;7.930;2023-05-20T01:16:38;14.10;99.90
14099;DHT22;7126;48.458;7.930;2023-05-20T01:21:48;14.20;99.90
14099;DHT22;7126;48.458;7.930;2023-05-20T01:24:15;14.10;99.90
14099;DHT22;7126;48.458;7.930;2023-05-20T01:26:41;14.10;99.90
14099;DHT22;7126;48.458;7.930;2023-05-20T01:29:07;14.00;99.90
14099;DHT22;7126;48.458;7.930;2023-05-20T01:31:34;14.00;99.90
14099;DHT22;7126;48.458;7.930;2023-05-20T01:34:01;14.10;99.90
14099;DHT22;7126;48.458;7.930;2023-05-20T01:36:27;14.10;99.90
14099;DHT22;7126;48.458;7.930;2023-05-20T01:38:54;14.10;99.90
14099;DHT22;7126;48.458;7.930;2023-05-20T01:41:23;14.20;99.90
14099;DHT22;7126;48.458;7.930;2023-05-20T01:43:49;14.20;99.90
14099;DHT22;7126;48.458;7.930;2023-05-20T01:46:15;14.30;99.90
14099;DHT22;7126;48.458;7.930;2023-05-20T01:48:40;14.30;99.90
14099;DHT22;7126;48.458;7.930;2023-05-20T01:51:07;14.30;99.90
14099;DHT22;7126;48.458;7.930;2023-05-20T01:53:32;14.30;99.90
14099;DHT22;7126;48.458;7.930;2023-05-20T01:55:58;14.40;99.90
14099;DHT22;7126;48.458;7.930;2023-05-20T01:58:23;14.40;99.90
14099;DHT22;7126;48.458;7.930;2023-05-20T02:00:49;14.40;99.90
14099;DHT22;7126;48.458;7.930;2023-05-20T02:03:14;14.50;99.90
14099;DHT22;7126;48.458;7.930;2023-05-20T02:05:40;14.50;99.90
14099;DHT22;7126;48.458;7.930;2023-05-20T02:08:06;14.60;99.90
14099;DHT22;7126;48.458;7.930;2023-05-20T02:10:31;14.60;99.90
14099;DHT22;7126;48.458;7.930;2023-05-20T02:12:57;14.60;99.90
14099;DHT22;7126;48.458;7.930;2023-05-20T02:15:23;14.60;99.90
14099;DHT22;7126;48.458;7.930;2023-05-20T02:17:49;14.60;99.90
14099;DHT22;7126;48.458;7.930;2023-05-20T02:20:14;14.60;99.90
14099;DHT22;7126;48.458;7.930;2023-05-20T02:22:40;14.60;99.90
14099;DHT22;7126;48.458;7.930;2023-05-20T02:25:06;14.60;99.90
14099;DHT22;7126;48.458;7.930;2023-05-20T02:27:32;14.60;99.90
14099;DHT22;7126;48.458;7.930;2023-05-20T02:29:59;14.60;99.90
14099;DHT22;7126;48.458;7.930;2023-05-20T02:32:25;14.60;99.90
14099;DHT22;7126;48.458;7.930;2023-05-20T02:34:53;14.60;99.90
14099;DHT22;7126;48.458;7.930;2023-05-20T02:37:19;14.60;99.90
14099;DHT22;7126;48.458;7.930;2023-05-20T02:39:45;14.50;99.90
14099;DHT22;7126;48.458;7.930;2023-05-20T02:42:11;14.50;99.90
14099;DHT22;7126;48.458;7.930;2023-05-20T02:44:36;14.50;99.90
14099;DHT22;7126;48.458;7.930;2023-05-20T02:47:02;14.50;99.90
14099;DHT22;7126;48.458;7.930;2023-05-20T02:49:27;14.40;99.90
14099;DHT22;7126;48.458;7.930;2023-05-20T02:51:53;14.30;99.90
14099;DHT22;7126;48.458;7.930;2023-05-20T02:54:18;14.20;99.90
14099;DHT22;7126;48.458;7.930;2023-05-20T02:56:44;14.10;99.90
14099;DHT22;7126;48.458;7.930;2023-05-20T02:59:09;13.90;99.90
14099;DHT22;7126;48.458;7.930;2023-05-20T03:01:35;13.80;99.90
14099;DHT22;7126;48.458;7.930;2023-05-20T03:04:04;13.70;99.90
14099;DHT22;7126;48.458;7.930;2023-05-20T03:06:29;13.60;99.90
14099;DHT22;7126;48.458;7.930;2023-05-20T03:08:56;13.60;99.90
14099;DHT22;7126;48.458;7.930;2023-05-20T03:11:22;13.50;99.90
14099;DHT22;7126;48.458;7.930;2023-05-20T03:13:48;13.50;99.90
14099;DHT22;7126;48.458;7.930;2023-05-20T03:16:13;13.50;99.90
14099;DHT22;7126;48.458;7.930;2023-05-20T03:18:39;13.50;99.90
14099;DHT22;7126;48.458;7.930;2023-05-20T03:21:05;13.50;99.90
14099;DHT22;7126;48.458;7.930;2023-05-20T03:23:30;13.50;99.90
14099;DHT22;7126;48.458;7.930;2023-05-20T03:25:56;13.40;99.90
14099;DHT22;7126;48.458;7.930;2023-05-20T03:28:21;13.50;99.90
14099;DHT22;7126;48.458;7.930;2023-05-20T03:30:47;13.40;99.90
14099;DHT22;7126;48.458;7.930;2023-05-20T03:33:12;13.50;99.90
14099;DHT22;7126;48.458;7.930;2023-05-20T03:35:39;13.50;99.90
14099;DHT22;7126;48.458;7.930;2023-05-20T03:38:04;13.50;99.90
14099;DHT22;7126;48.458;7.930;2023-05-20T03:40:30;13.60;99.90
14099;DHT22;7126;48.458;7.930;2023-05-20T03:42:56;13.70;99.90
14099;DHT22;7126;48.458;7.930;2023-05-20T03:45:21;13.80;99.90
14099;DHT22;7126;48.458;7.930;2023-05-20T03:47:47;13.80;99.90
14099;DHT22;7126;48.458;7.930;2023-05-20T03:50:13;13.90;99.90
14099;DHT22;7126;48.458;7.930;2023-05-20T03:52:38;13.90;99.90
14099;DHT22;7126;48.458;7.930;2023-05-20T03:55:05;14.00;99.90
14099;DHT22;7126;48.458;7.930;2023-05-20T03:57:31;14.00;99.90
14099;DHT22;7126;48.458;7.930;2023-05-20T03:59:57;14.00;99.90
14099;DHT22;7126;48.458;7.930;2023-05-20T04:02:22;13.90;99.90
14099;DHT22;7126;48.458;7.930;2023-05-20T04:04:48;13.90;99.90
14099;DHT22;7126;48.458;7.930;2023-05-20T04:07:17;13.80;99.90
14099;DHT22;7126;48.458;7.930;2023-05-20T04:09:43;13.90;99.90
14099;DHT22;7126;48.458;7.930;2023-05-20T04:12:08;13.90;99.90
14099;DHT22;7126;48.458;7.930;2023-05-20T04:14:34;13.90;99.90
14099;DHT22;7126;48.458;7.930;2023-05-20T04:17:02;14.00;99.90
14099;DHT22;7126;48.458;7.930;2023-05-20T04:19:28;14.10;99.90
14099;DHT22;7126;48.458;7.930;2023-05-20T04:21:55;14.10;99.90
14099;DHT22;7126;48.458;7.930;2023-05-20T04:24:21;14.20;99.90
14099;DHT22;7126;48.458;7.930;2023-05-20T04:26:50;14.30;99.90
14099;DHT22;7126;48.458;7.930;2023-05-20T04:29:16;14.30;99.90
14099;DHT22;7126;48.458;7.930;2023-05-20T04:31:46;14.40;99.90
14099;DHT22;7126;48.458;7.930;2023-05-20T04:34:12;14.40;99.90
14099;DHT22;7126;48.458;7.930;2023-05-20T04:36:38;14.50;99.90
14099;DHT22;7126;48.458;7.930;2023-05-20T04:39:04;14.50;99.90
14099;DHT22;7126;48.458;7.930;2023-05-20T04:41:29;14.50;99.90
14099;DHT22;7126;48.458;7.930;2023-05-20T04:43:55;14.50;99.90
14099;DHT22;7126;48.458;7.930;2023-05-20T04:46:25;14.60;99.90
14099;DHT22;7126;48.458;7.930;2023-05-20T04:48:51;14.60;99.90
14099;DHT22;7126;48.458;7.930;2023-05-20T04:51:17;14.60;99.90
14099;DHT22;7126;48.458;7.930;2023-05-20T04:53:42;14.60;99.90
14099;DHT22;7126;48.458;7.930;2023-05-20T04:56:09;14.70;99.90
14099;DHT22;7126;48.458;7.930;2023-05-20T04:58:35;14.70;99.90
14099;DHT22;7126;48.458;7.930;2023-05-20T05:01:01;14.70;99.90
14099;DHT22;7126;48.458;7.930;2023-05-20T05:03:26;14.80;99.90
14099;DHT22;7126;48.458;7.930;2023-05-20T05:05:55;14.80;99.90
14099;DHT22;7126;48.458;7.930;2023-05-20T05:08:21;14.90;99.90
14099;DHT22;7126;48.458;7.930;2023-05-20T05:10:47;14.90;99.90
14099;DHT22;7126;48.458;7.930;2023-05-20T05:13:12;14.90;99.90
14099;DHT22;7126;48.458;7.930;2023-05-20T05:15:38;15.00;99.90
14099;DHT22;7126;48.458;7.930;2023-05-20T05:18:03;15.00;99.90
14099;DHT22;7126;48.458;7.930;2023-05-20T05:20:29;15.00;99.90
14099;DHT22;7126;48.458;7.930;2023-05-20T05:22:54;15.00;99.90
14099;DHT22;7126;48.458;7.930;2023-05-20T05:25:20;15.00;99.90
14099;DHT22;7126;48.458;7.930;2023-05-20T05:27:46;15.00;99.90
14099;DHT22;7126;48.458;7.930;2023-05-20T05:30:14;15.10;99.90
14099;DHT22;7126;48.458;7.930;2023-05-20T05:32:40;15.10;99.90
14099;DHT22;7126;48.458;7.930;2023-05-20T05:35:05;15.10;99.90
14099;DHT22;7126;48.458;7.930;2023-05-20T05:37:31;15.20;99.90
14099;DHT22;7126;48.458;7.930;2023-05-20T05:39:56;15.20;99.90
14099;DHT22;7126;48.458;7.930;2023-05-20T05:42:22;15.10;99.90
14099;DHT22;7126;48.458;7.930;2023-05-20T05:44:47;15.20;99.90
14099;DHT22;7126;48.458;7.930;2023-05-20T05:47:13;15.20;99.90
14099;DHT22;7126;48.458;7.930;2023-05-20T05:49:39;15.30;99.90
14099;DHT22;7126;48.458;7.930;2023-05-20T05:52:05;15.40;99.90
14099;DHT22;7126;48.458;7.930;2023-05-20T05:54:30;15.40;99.90
14099;DHT22;7126;48.458;7.930;2023-05-20T05:56:56;15.50;99.90
14099;DHT22;7126;48.458;7.930;2023-05-20T05:59:21;15.60;99.90
14099;DHT22;7126;48.458;7.930;2023-05-20T06:01:47;15.60;99.90
14099;DHT22;7126;48.458;7.930;2023-05-20T06:04:13;15.60;99.90
14099;DHT22;7126;48.458;7.930;2023-05-20T06:06:39;15.60;99.90
14099;DHT22;7126;48.458;7.930;2023-05-20T06:09:05;15.60;99.90
14099;DHT22;7126;48.458;7.930;2023-05-20T06:11:31;15.60;99.90
14099;DHT22;7126;48.458;7.930;2023-05-20T06:13:57;15.60;99.90
14099;DHT22;7126;48.458;7.930;2023-05-20T06:16:23;15.60;99.90
14099;DHT22;7126;48.458;7.930;2023-05-20T06:18:49;15.60;99.90
14099;DHT22;7126;48.458;7.930;2023-05-20T06:21:15;15.70;99.90
14099;DHT22;7126;48.458;7.930;2023-05-20T06:23:40;15.80;99.90
14099;DHT22;7126;48.458;7.930;2023-05-20T06:26:06;15.80;99.90
14099;DHT22;7126;48.458;7.930;2023-05-20T06:28:32;15.90;99.90
14099;DHT22;7126;48.458;7.930;2023-05-20T06:30:57;16.00;99.90
14099;DHT22;7126;48.458;7.930;2023-05-20T06:33:23;16.10;99.90
14099;DHT22;7126;48.458;7.930;2023-05-20T06:35:55;16.20;99.90
14099;DHT22;7126;48.458;7.930;2023-05-20T06:38:21;16.30;99.90
14099;DHT22;7126;48.458;7.930;2023-05-20T06:40:47;16.30;99.90
14099;DHT22;7126;48.458;7.930;2023-05-20T06:43:14;16.40;99.90
14099;DHT22;7126;48.458;7.930;2023-05-20T06:45:40;16.40;99.90
14099;DHT22;7126;48.458;7.930;2023-05-20T06:48:06;16.40;99.90
14099;DHT22;7126;48.458;7.930;2023-05-20T06:50:31;16.40;99.90
14099;DHT22;7126;48.458;7.930;2023-05-20T06:52:57;16.40;99.90
14099;DHT22;7126;48.458;7.930;2023-05-20T06:55:23;16.40;99.90
14099;DHT22;7126;48.458;7.930;2023-05-20T06:57:48;16.50;99.90
14099;DHT22;7126;48.458;7.930;2023-05-20T07:00:14;16.50;99.90
14099;DHT22;7126;48.458;7.930;2023-05-20T07:02:40;16.50;99.90
14099;DHT22;7126;48.458;7.930;2023-05-20T07:05:06;16.40;99.90
14099;DHT22;7126;48.458;7.930;2023-05-20T07:07:31;16.40;99.90
14099;DHT22;7126;48.458;7.930;2023-05-20T07:09:57;16.40;99.90
14099;DHT22;7126;48.458;7.930;2023-05-20T07:12:23;16.50;99.90
14099;DHT22;7126;48.458;7.930;2023-05-20T07:14:49;16.50;99.90
14099;DHT22;7126;48.458;7.930;2023-05-20T07:17:14;16.60;99.90
14099;DHT22;7126;48.458;7.930;2023-05-20T07:19:40;16.60;99.90
14099;DHT22;7126;48.458;7.930;2023-05-20T07:22:06;16.70;99.90
14099;DHT22;7126;48.458;7.930;2023-05-20T07:24:31;16.70;99.90
14099;DHT22;7126;48.458;7.930;2023-05-20T07:26:57;16.80;99.90
14099;DHT22;7126;48.458;7.930;2023-05-20T07:29:23;16.90;99.90
14099;DHT22;7126;48.458;7.930;2023-05-20T07:31:48;17.00;99.90
14099;DHT22;7126;48.458;7.930;2023-05-20T07:34:14;17.00;99.90
14099;DHT22;7126;48.458;7.930;2023-05-20T07:36:40;17.10;99.90
14099;DHT22;7126;48.458;7.930;2023-05-20T07:39:06;17.20;99.90
14099;DHT22;7126;48.458;7.930;2023-05-20T07:41:35;17.30;99.90
14099;DHT22;7126;48.458;7.930;2023-05-20T07:44:04;17.40;99.90
14099;DHT22;7126;48.458;7.930;2023-05-20T07:46:30;17.40;99.90
14099;DHT22;7126;48.458;7.930;2023-05-20T07:48:55;17.40;99.90
14099;DHT22;7126;48.458;7.930;2023-05-20T07:51:21;17.40;99.90
14099;DHT22;7126;48.458;7.930;2023-05-20T07:53:46;17.50;99.90
14099;DHT22;7126;48.458;7.930;2023-05-20T07:56:12;17.60;99.90
14099;DHT22;7126;48.458;7.930;2023-05-20T07:58:40;17.70;99.90
14099;DHT22;7126;48.458;7.930;2023-05-20T08:01:06;17.90;99.90
14099;DHT22;7126;48.458;7.930;2023-05-20T08:03:33;18.00;99.90
14099;DHT22;7126;48.458;7.930;2023-05-20T08:05:59;18.10;99.90
14099;DHT22;7126;48.458;7.930;2023-05-20T08:08:24;18.20;99.90
14099;DHT22;7126;48.458;7.930;2023-05-20T08:10:51;18.30;99.90
14099;DHT22;7126;48.458;7.930;2023-05-20T08:13:17;18.40;99.90
14099;DHT22;7126;48.458;7.930;2023-05-20T08:15:42;18.50;99.90
14099;DHT22;7126;48.458;7.930;2023-05-20T08:18:08;18.60;99.90
14099;DHT22;7126;48.458;7.930;2023-05-20T08:20:33;18.70;99.90
14099;DHT22;7126;48.458;7.930;2023-05-20T08:22:59;18.80;99.90
14099;DHT22;7126;48.458;7.930;2023-05-20T08:25:25;18.80;99.90
14099;DHT22;7126;48.458;7.930;2023-05-20T08:27:50;18.80;99.90
14099;DHT22;7126;48.458;7.930;2023-05-20T08:30:16;18.80;99.90
14099;DHT22;7126;48.458;7.930;2023-05-20T08:32:42;18.80;99.90
14099;DHT22;7126;48.458;7.930;2023-05-20T08:35:07;18.90;99.90
14099;DHT22;7126;48.458;7.930;2023-05-20T08:37:33;19.10;99.90
14099;DHT22;7126;48.458;7.930;2023-05-20T08:39:59;19.20;99.90
14099;DHT22;7126;48.458;7.930;2023-05-20T08:42:24;19.40;99.90
14099;DHT22;7126;48.458;7.930;2023-05-20T08:44:52;19.50;99.90
14099;DHT22;7126;48.458;7.930;2023-05-20T08:47:21;19.60;99.90
14099;DHT22;7126;48.458;7.930;2023-05-20T08:49:47;19.80;99.90
14099;DHT22;7126;48.458;7.930;2023-05-20T08:52:15;20.00;99.90
14099;DHT22;7126;48.458;7.930;2023-05-20T08:54:47;20.10;99.90
14099;DHT22;7126;48.458;7.930;2023-05-20T08:57:13;20.20;99.90
14099;DHT22;7126;48.458;7.930;2023-05-20T08:59:44;20.40;99.90
14099;DHT22;7126;48.458;7.930;2023-05-20T09:02:11;20.50;99.90
14099;DHT22;7126;48.458;7.930;2023-05-20T09:04:37;20.60;99.90
14099;DHT22;7126;48.458;7.930;2023-05-20T09:07:03;20.70;99.90
14099;DHT22;7126;48.458;7.930;2023-05-20T09:09:29;20.80;99.90
14099;DHT22;7126;48.458;7.930;2023-05-20T09:11:55;20.80;99.90
14099;DHT22;7126;48.458;7.930;2023-05-20T09:14:21;20.70;99.90
14099;DHT22;7126;48.458;7.930;2023-05-20T09:16:48;20.70;99.90
14099;DHT22;7126;48.458;7.930;2023-05-20T09:19:13;20.70;99.90
14099;DHT22;7126;48.458;7.930;2023-05-20T09:21:40;20.60;99.90
14099;DHT22;7126;48.458;7.930;2023-05-20T09:24:06;20.50;99.90
14099;DHT22;7126;48.458;7.930;2023-05-20T09:26:32;20.50;99.90
14099;DHT22;7126;48.458;7.930;2023-05-20T09:28:58;20.50;99.90
14099;DHT22;7126;48.458;7.930;2023-05-20T09:31:30;20.50;99.90
14099;DHT22;7126;48.458;7.930;2023-05-20T09:33:59;20.30;99.90
14099;DHT22;7126;48.458;7.930;2023-05-20T09:36:29;20.20;99.90
14099;DHT22;7126;48.458;7.930;2023-05-20T09:39:00;20.30;99.90
14099;DHT22;7126;48.458;7.930;2023-05-20T09:41:34;20.30;99.90
14099;DHT22;7126;48.458;7.930;2023-05-20T09:44:02;20.50;99.90
14099;DHT22;7126;48.458;7.930;2023-05-20T09:46:29;20.70;99.90
14099;DHT22;7126;48.458;7.930;2023-05-20T09:48:55;20.70;99.90
14099;DHT22;7126;48.458;7.930;2023-05-20T09:51:22;20.90;99.90
14099;DHT22;7126;48.458;7.930;2023-05-20T09:53:49;21.00;99.90
14099;DHT22;7126;48.458;7.930;2023-05-20T09:56:17;20.90;99.90
14099;DHT22;7126;48.458;7.930;2023-05-20T09:58:45;20.80;99.90
14099;DHT22;7126;48.458;7.930;2023-05-20T10:01:11;20.90;99.90
14099;DHT22;7126;48.458;7.930;2023-05-20T10:03:37;20.90;99.90
14099;DHT22;7126;48.458;7.930;2023-05-20T10:06:16;21.00;99.90
14099;DHT22;7126;48.458;7.930;2023-05-20T10:09:10;21.10;99.90
14099;DHT22;7126;48.458;7.930;2023-05-20T10:20:25;21.50;99.90
14099;DHT22;7126;48.458;7.930;2023-05-20T10:22:55;21.80;99.90
14099;DHT22;7126;48.458;7.930;2023-05-20T10:25:25;21.80;99.90
14099;DHT22;7126;48.458;7.930;2023-05-20T10:28:02;22.00;99.90
14099;DHT22;7126;48.458;7.930;2023-05-20T10:30:27;22.20;99.90
14099;DHT22;7126;48.458;7.930;2023-05-20T10:32:56;22.40;99.90
14099;DHT22;7126;48.458;7.930;2023-05-20T10:35:23;22.40;99.90
14099;DHT22;7126;48.458;7.930;2023-05-20T10:37:53;22.30;99.90
14099;DHT22;7126;48.458;7.930;2023-05-20T10:40:20;22.40;99.90
14099;DHT22;7126;48.458;7.930;2023-05-20T10:42:47;22.40;99.90
14099;DHT22;7126;48.458;7.930;2023-05-20T10:45:28;22.30;99.90
14099;DHT22;7126;48.458;7.930;2023-05-20T10:47:55;22.10;99.90
14099;DHT22;7126;48.458;7.930;2023-05-20T10:50:34;22.00;99.90
14099;DHT22;7126;48.458;7.930;2023-05-20T10:53:05;22.20;99.90
14099;DHT22;7126;48.458;7.930;2023-05-20T10:55:38;22.40;99.90
14099;DHT22;7126;48.458;7.930;2023-05-20T10:58:05;22.70;99.90
14099;DHT22;7126;48.458;7.930;2023-05-20T11:00:34;22.90;99.90
14099;DHT22;7126;48.458;7.930;2023-05-20T11:03:04;23.30;99.90
14099;DHT22;7126;48.458;7.930;2023-05-20T11:05:30;23.40;99.90
14099;DHT22;7126;48.458;7.930;2023-05-20T11:08:04;23.30;99.90
14099;DHT22;7126;48.458;7.930;2023-05-20T11:10:30;23.20;99.90
14099;DHT22;7126;48.458;7.930;2023-05-20T11:12:57;23.10;99.90
14099;DHT22;7126;48.458;7.930;2023-05-20T11:15:23;23.00;99.90
14099;DHT22;7126;48.458;7.930;2023-05-20T11:17:58;22.90;99.90
14099;DHT22;7126;48.458;7.930;2023-05-20T11:20:24;23.00;99.90
14099;DHT22;7126;48.458;7.930;2023-05-20T11:22:51;23.10;99.90
14099;DHT22;7126;48.458;7.930;2023-05-20T11:25:17;23.00;99.90
14099;DHT22;7126;48.458;7.930;2023-05-20T11:27:44;23.00;99.90
14099;DHT22;7126;48.458;7.930;2023-05-20T11:30:12;23.10;99.90
14099;DHT22;7126;48.458;7.930;2023-05-20T11:32:41;23.40;99.90
14099;DHT22;7126;48.458;7.930;2023-05-20T11:35:07;23.70;99.90
14099;DHT22;7126;48.458;7.930;2023-05-20T11:37:35;24.10;99.90
14099;DHT22;7126;48.458;7.930;2023-05-20T11:40:07;24.40;99.90
14099;DHT22;7126;48.458;7.930;2023-05-20T11:42:33;24.50;99.90
14099;DHT22;7126;48.458;7.930;2023-05-20T11:44:59;24.50;99.90
14099;DHT22;7126;48.458;7.930;2023-05-20T11:47:25;24.50;99.90
14099;DHT22;7126;48.458;7.930;2023-05-20T11:49:55;24.50;99.90
14099;DHT22;7126;48.458;7.930;2023-05-20T11:52:21;24.40;99.90
14099;DHT22;7126;48.458;7.930;2023-05-20T11:54:52;24.40;99.90
14099;DHT22;7126;48.458;7.930;2023-05-20T11:57:18;24.20;99.90
14099;DHT22;7126;48.458;7.930;2023-05-20T11:59:45;23.90;99.90
14099;DHT22;7126;48.458;7.930;2023-05-20T12:02:11;23.70;99.90
14099;DHT22;7126;48.458;7.930;2023-05-20T12:04:36;23.50;99.90
14099;DHT22;7126;48.458;7.930;2023-05-20T12:07:02;23.30;99.90
14099;DHT22;7126;48.458;7.930;2023-05-20T12:09:28;23.20;99.90
14099;DHT22;7126;48.458;7.930;2023-05-20T12:11:54;23.20;99.90
14099;DHT22;7126;48.458;7.930;2023-05-20T12:14:21;23.10;99.90
14099;DHT22;7126;48.458;7.930;2023-05-20T12:16:46;23.00;99.90
14099;DHT22;7126;48.458;7.930;2023-05-20T12:19:12;23.00;99.90
14099;DHT22;7126;48.458;7.930;2023-05-20T12:21:37;23.10;99.90
14099;DHT22;7126;48.458;7.930;2023-05-20T12:24:03;23.10;99.90
14099;DHT22;7126;48.458;7.930;2023-05-20T12:26:31;23.10;99.90
14099;DHT22;7126;48.458;7.930;2023-05-20T12:28:57;23.10;99.90
14099;DHT22;7126;48.458;7.930;2023-05-20T12:31:23;23.10;99.90
14099;DHT22;7126;48.458;7.930;2023-05-20T12:33:49;23.30;99.90
14099;DHT22;7126;48.458;7.930;2023-05-20T12:36:15;23.60;99.90
14099;DHT22;7126;48.458;7.930;2023-05-20T12:38:41;23.90;99.90
14099;DHT22;7126;48.458;7.930;2023-05-20T12:41:07;24.10;99.90
14099;DHT22;7126;48.458;7.930;2023-05-20T12:43:34;24.40;99.90
14099;DHT22;7126;48.458;7.930;2023-05-20T12:45:59;24.40;99.90
14099;DHT22;7126;48.458;7.930;2023-05-20T12:48:25;24.40;99.90
14099;DHT22;7126;48.458;7.930;2023-05-20T12:50:50;24.40;99.90
14099;DHT22;7126;48.458;7.930;2023-05-20T12:53:16;24.40;99.90
14099;DHT22;7126;48.458;7.930;2023-05-20T12:55:42;24.30;99.90
14099;DHT22;7126;48.458;7.930;2023-05-20T12:58:07;24.10;99.90
14099;DHT22;7126;48.458;7.930;2023-05-20T13:00:33;24.00;99.90
14099;DHT22;7126;48.458;7.930;2023-05-20T13:02:59;23.80;99.90
14099;DHT22;7126;48.458;7.930;2023-05-20T13:05:25;23.70;99.90
14099;DHT22;7126;48.458;7.930;2023-05-20T13:07:50;23.50;99.90
14099;DHT22;7126;48.458;7.930;2023-05-20T13:10:16;23.40;99.90
14099;DHT22;7126;48.458;7.930;2023-05-20T13:12:42;23.30;99.90
14099;DHT22;7126;48.458;7.930;2023-05-20T13:15:11;23.20;99.90
14099;DHT22;7126;48.458;7.930;2023-05-20T13:17:37;23.20;99.90
14099;DHT22;7126;48.458;7.930;2023-05-20T13:20:04;23.20;99.90
14099;DHT22;7126;48.458;7.930;2023-05-20T13:22:29;23.10;99.90
14099;DHT22;7126;48.458;7.930;2023-05-20T13:24:55;23.10;99.90
14099;DHT22;7126;48.458;7.930;2023-05-20T13:27:21;23.10;99.90
14099;DHT22;7126;48.458;7.930;2023-05-20T13:29:47;23.20;99.90
14099;DHT22;7126;48.458;7.930;2023-05-20T13:32:12;23.20;99.90
14099;DHT22;7126;48.458;7.930;2023-05-20T13:34:38;23.30;99.90
14099;DHT22;7126;48.458;7.930;2023-05-20T13:37:04;23.50;99.90
14099;DHT22;7126;48.458;7.930;2023-05-20T13:39:30;23.60;99.90
14099;DHT22;7126;48.458;7.930;2023-05-20T13:41:55;23.60;99.90
14099;DHT22;7126;48.458;7.930;2023-05-20T13:44:21;23.70;99.90
14099;DHT22;7126;48.458;7.930;2023-05-20T13:46:46;23.70;99.90
14099;DHT22;7126;48.458;7.930;2023-05-20T13:49:12;23.70;99.90
14099;DHT22;7126;48.458;7.930;2023-05-20T13:51:38;23.80;99.90
14099;DHT22;7126;48.458;7.930;2023-05-20T13:54:03;24.00;99.90
14099;DHT22;7126;48.458;7.930;2023-05-20T13:56:29;24.20;99.90
14099;DHT22;7126;48.458;7.930;2023-05-20T13:58:56;24.20;99.90
14099;DHT22;7126;48.458;7.930;2023-05-20T14:01:21;24.30;99.90
14099;DHT22;7126;48.458;7.930;2023-05-20T14:03:47;24.50;99.90
14099;DHT22;7126;48.458;7.930;2023-05-20T14:06:12;24.70;99.90
14099;DHT22;7126;48.458;7.930;2023-05-20T14:08:40;25.00;99.90
14099;DHT22;7126;48.458;7.930;2023-05-20T14:11:05;25.20;99.90
14099;DHT22;7126;48.458;7.930;2023-05-20T14:13:31;25.20;99.90
14099;DHT22;7126;48.458;7.930;2023-05-20T14:15:56;25.00;99.90
14099;DHT22;7126;48.458;7.930;2023-05-20T14:18:22;24.70;99.90
14099;DHT22;7126;48.458;7.930;2023-05-20T14:20:48;24.40;99.90
14099;DHT22;7126;48.458;7.930;2023-05-20T14:23:13;24.20;99.90
14099;DHT22;7126;48.458;7.930;2023-05-20T14:25:39;24.10;99.90
14099;DHT22;7126;48.458;7.930;2023-05-20T14:28:05;24.00;99.90
14099;DHT22;7126;48.458;7.930;2023-05-20T14:30:30;24.00;99.90
14099;DHT22;7126;48.458;7.930;2023-05-20T14:32:56;24.00;99.90
14099;DHT22;7126;48.458;7.930;2023-05-20T14:35:22;24.10;99.90
14099;DHT22;7126;48.458;7.930;2023-05-20T14:37:47;24.00;99.90
14099;DHT22;7126;48.458;7.930;2023-05-20T14:40:13;24.00;99.90
14099;DHT22;7126;48.458;7.930;2023-05-20T14:42:38;24.00;99.90
14099;DHT22;7126;48.458;7.930;2023-05-20T14:45:05;24.00;99.90
14099;DHT22;7126;48.458;7.930;2023-05-20T14:47:31;23.90;99.90
14099;DHT22;7126;48.458;7.930;2023-05-20T14:49:57;23.80;99.90
14099;DHT22;7126;48.458;7.930;2023-05-20T14:52:23;23.60;99.90
14099;DHT22;7126;48.458;7.930;2023-05-20T14:54:48;23.50;99.90
14099;DHT22;7126;48.458;7.930;2023-05-20T14:57:14;23.40;99.90
14099;DHT22;7126;48.458;7.930;2023-05-20T14:59:42;23.40;99.90
14099;DHT22;7126;48.458;7.930;2023-05-20T15:02:08;23.40;99.90
14099;DHT22;7126;48.458;7.930;2023-05-20T15:04:34;23.40;99.90
14099;DHT22;7126;48.458;7.930;2023-05-20T15:07:00;23.40;99.90
14099;DHT22;7126;48.458;7.930;2023-05-20T15:09:25;23.40;99.90
14099;DHT22;7126;48.458;7.930;2023-05-20T15:11:51;23.30;99.90
14099;DHT22;7126;48.458;7.930;2023-05-20T15:14:17;23.40;99.90
14099;DHT22;7126;48.458;7.930;2023-05-20T15:16:43;23.50;99.90
14099;DHT22;7126;48.458;7.930;2023-05-20T15:19:10;23.50;99.90
14099;DHT22;7126;48.458;7.930;2023-05-20T15:21:36;23.60;99.90
14099;DHT22;7126;48.458;7.930;2023-05-20T15:24:02;23.60;99.90
14099;DHT22;7126;48.458;7.930;2023-05-20T15:26:29;23.60;99.90
14099;DHT22;7126;48.458;7.930;2023-05-20T15:28:56;23.70;99.90
14099;DHT22;7126;48.458;7.930;2023-05-20T15:31:22;23.80;99.90
14099;DHT22;7126;48.458;7.930;2023-05-20T15:33:47;23.90;99.90
14099;DHT22;7126;48.458;7.930;2023-05-20T15:36:13;24.00;99.90
14099;DHT22;7126;48.458;7.930;2023-05-20T15:38:38;24.00;99.90
14099;DHT22;7126;48.458;7.930;2023-05-20T15:41:04;24.00;99.90
14099;DHT22;7126;48.458;7.930;2023-05-20T15:43:31;23.90;99.90
14099;DHT22;7126;48.458;7.930;2023-05-20T15:45:56;23.80;99.90
14099;DHT22;7126;48.458;7.930;2023-05-20T15:48:22;23.70;99.90
14099;DHT22;7126;48.458;7.930;2023-05-20T15:50:48;23.50;99.90